»·PEaware :: N313AA L52-L88

N313AA :: L52-L88

FLIGHT INFORMATION

Flight Status: Arrived
Operator: Privately registered:
United States
More flights under this callsign
Pilot: Anonymous 45354 (45354)
Aircraft: CESSNA 172 SKYHAWK
(C172)
More flights by this aircraft type
Origin: L52 Oceano Co
United States
Destination: L88 New Cuyama
United States
More flights between these airports :: More routes between these airports
Route:
File this flight plan on PilotEdge
Remarks:
Altitude:
(Current/Filed)
5,500ft
Speed:
(Current/Filed)
110kts
Departed: 07-Nov-23 01:44 PM
Arrived: 07-Nov-23 02:16 PM
Distance/Time
Traveled:
47nm/0:32
Distance/Time
To Go:
Arrived

Flight Plot

Page will automatically refresh every two minutes.


Map Options




Map Legend


Flown Route
Filed Route
Departure Airport
Arrival Airport
Navaid (VOR, NDB)
Fix

Horizontal Profiles

Position Reports

Time Latitude Longitude Heading Altitude Ground
Speed
07-Nov-23 13:35 35.103806 -120.625103 216 22ft 0kts
07-Nov-23 13:36 35.103806 -120.625103 216 22ft 0kts
07-Nov-23 13:37 35.103806 -120.625103 217 22ft 0kts
07-Nov-23 13:38 35.103806 -120.625103 217 22ft 0kts
07-Nov-23 13:39 35.103806 -120.625103 217 23ft 0kts
07-Nov-23 13:40 35.103743 -120.625265 239 23ft 0kts
07-Nov-23 13:41 35.103657 -120.625309 163 23ft 0kts
07-Nov-23 13:42 35.103657 -120.625309 163 23ft 0kts
07-Nov-23 13:43 35.100796 -120.620989 121 25ft 77kts
07-Nov-23 13:44 35.096136 -120.589055 98 569ft 108kts
07-Nov-23 13:45 35.090234 -120.554163 99 1405ft 102kts
07-Nov-23 13:46 35.084617 -120.521065 94 2352ft 96kts
07-Nov-23 13:47 35.079339 -120.489898 93 3089ft 93kts
07-Nov-23 13:48 35.074139 -120.459298 89 3767ft 92kts
07-Nov-23 13:49 35.068934 -120.428644 92 4537ft 91kts
07-Nov-23 13:50 35.063784 -120.398397 88 5246ft 90kts
07-Nov-23 13:51 35.058218 -120.365945 93 5745ft 102kts
07-Nov-23 13:52 35.052341 -120.331634 93 6401ft 103kts
07-Nov-23 13:53 35.046428 -120.297077 94 6912ft 105kts
07-Nov-23 13:54 35.040365 -120.261701 93 7369ft 107kts
07-Nov-23 13:55 35.034026 -120.224816 93 7634ft 123kts
07-Nov-23 13:56 35.026508 -120.181518 96 7622ft 134kts
07-Nov-23 13:57 35.018761 -120.136698 95 7613ft 134kts
07-Nov-23 13:58 35.011105 -120.092392 94 7609ft 134kts
07-Nov-23 13:59 35.003740 -120.049665 96 7607ft 126kts
07-Nov-23 14:00 34.996286 -120.006797 97 7608ft 131kts
07-Nov-23 14:01 34.988505 -119.962138 96 7601ft 134kts
07-Nov-23 14:02 34.980585 -119.916822 97 7602ft 137kts
07-Nov-23 14:03 34.972617 -119.871232 96 7602ft 138kts
07-Nov-23 14:04 34.964646 -119.825739 98 7594ft 137kts
07-Nov-23 14:05 34.953493 -119.780894 106 7598ft 139kts
07-Nov-23 14:06 34.941130 -119.736154 104 7597ft 140kts
07-Nov-23 14:07 34.928134 -119.689220 105 7138ft 149kts
07-Nov-23 14:08 34.915782 -119.644743 103 6805ft 121kts
07-Nov-23 14:09 34.911315 -119.608060 53 6428ft 99kts
07-Nov-23 14:10 34.906587 -119.580803 203 5449ft 113kts
07-Nov-23 14:11 34.909866 -119.612158 298 4339ft 97kts
07-Nov-23 14:12 34.921346 -119.643140 286 3414ft 103kts
07-Nov-23 14:13 34.932462 -119.667439 306 2668ft 75kts
07-Nov-23 14:14 34.940915 -119.687814 297 2175ft 41kts
07-Nov-23 14:15 34.943187 -119.691132 12 2163ft 0kts
07-Nov-23 14:16 34.943187 -119.691132 12 2163ft 0kts
07-Nov-23 14:17 34.943187 -119.691132 12 2163ft 0kts
07-Nov-23 14:18 34.943187 -119.691132 12 2163ft 0kts
07-Nov-23 14:19 34.943187 -119.691132 12 2163ft 0kts
07-Nov-23 14:20 34.943187 -119.691132 12 2163ft 0kts
07-Nov-23 14:21 34.943187 -119.691132 12 2163ft 0kts
07-Nov-23 14:22 34.943187 -119.691132 12 2163ft 0kts
07-Nov-23 14:23 34.943187 -119.691132 12 2165ft 0kts
07-Nov-23 14:24 34.943187 -119.691132 12 2165ft 0kts
07-Nov-23 14:25 34.943187 -119.691132 12 2165ft 0kts
07-Nov-23 14:26 34.943187 -119.691132 12 2165ft 0kts
07-Nov-23 14:27 34.943187 -119.691132 12 2165ft 0kts
07-Nov-23 14:28 34.943187 -119.691132 12 2165ft 0kts
07-Nov-23 14:29 34.943187 -119.691132 12 2165ft 0kts
07-Nov-23 14:30 34.943187 -119.691132 12 2165ft 0kts

Navigation Log

Ident Type
Flight plan parsing failed, navigation log unavailable